Time;durP1;ratioP1;P1;durP2;ratioP2;P2;SDS_P1;SDS_P2;PMS_P1;PMS_P2;Temp;Humidity;BMP_temperature;BMP_pressure;BME280_temperature;BME280_humidity;BME280_pressure;Samples;Min_cycle;Max_cycle;Signal;HPM_P1;HPM_P2
2022/05/29 00:01:16;;;;;;;;;34.75;27.50;27.00;99.90;;;;;;5039031;28;8745;-64
2022/05/29 00:03:43;;;;;;;;;25.40;18.80;27.00;99.90;;;;;;5038497;28;8754;-63
2022/05/29 00:06:10;;;;;;;;;29.00;24.75;27.00;99.90;;;;;;5038734;28;8836;-64
2022/05/29 00:08:42;;;;;;;;;33.25;27.25;27.00;99.90;;;;;;5020607;28;8789;-64
2022/05/29 00:11:10;;;;;;;;;34.75;29.00;27.20;99.90;;;;;;5004850;28;8752;-64
2022/05/29 00:13:36;;;;;;;;;38.00;33.50;27.10;99.90;;;;;;5010098;28;8872;-64
2022/05/29 00:16:05;;;;;;;;;28.75;25.25;27.20;99.90;;;;;;5039310;28;8725;-64
2022/05/29 00:18:32;;;;;;;;;30.40;23.00;27.20;99.90;;;;;;5037114;28;8733;-65
2022/05/29 00:21:00;;;;;;;;;31.50;26.50;27.30;99.90;;;;;;5038351;28;8757;-64
2022/05/29 00:23:27;;;;;;;;;32.25;30.00;27.20;99.90;;;;;;5020148;28;8753;-64
2022/05/29 00:25:54;;;;;;;;;36.25;27.25;27.30;99.90;;;;;;5037041;28;9414;-64
2022/05/29 00:28:21;;;;;;;;;29.25;22.50;27.30;99.90;;;;;;5038196;28;8792;-64
2022/05/29 00:30:48;;;;;;;;;25.75;23.50;27.40;99.90;;;;;;5038057;28;8765;-64
2022/05/29 00:33:18;;;;;;;;;29.25;27.00;27.40;99.90;;;;;;5037857;28;8787;-64
2022/05/29 00:35:44;;;;;;;;;26.80;22.40;27.30;99.90;;;;;;5037958;28;8936;-64
2022/05/29 00:38:12;;;;;;;;;29.50;26.50;27.40;99.90;;;;;;5037821;28;8780;-64
2022/05/29 00:41:00;;;;;;;;;23.50;17.50;27.50;99.90;;;;;;5003685;28;8854;-64
2022/05/29 00:43:26;;;;;;;;;28.50;24.25;27.50;99.90;;;;;;5037587;28;8765;-63
2022/05/29 00:46:01;;;;;;;;;29.50;24.25;27.50;99.90;;;;;;5020897;28;8766;-64
2022/05/29 00:48:28;;;;;;;;;28.80;23.60;27.50;99.90;;;;;;5037376;28;8729;-63
2022/05/29 00:50:56;;;;;;;;;26.25;20.75;27.60;99.90;;;;;;5038012;28;8737;-64
2022/05/29 00:53:23;;;;;;;;;32.00;28.50;27.60;99.90;;;;;;5020195;28;8761;-64
2022/05/29 00:56:05;;;;;;;;;35.00;30.75;27.60;99.90;;;;;;5036380;28;8745;-64
2022/05/29 00:58:32;;;;;;;;;37.75;34.00;27.70;99.90;;;;;;5019028;28;8727;-64
2022/05/29 01:00:59;;;;;;;;;24.75;22.50;27.70;99.90;;;;;;5001032;28;8771;-64
2022/05/29 01:03:25;;;;;;;;;25.50;23.50;27.70;99.90;;;;;;5017345;28;8735;-64
2022/05/29 01:05:52;;;;;;;;;36.75;29.50;27.60;99.90;;;;;;5017967;28;8779;-64
2022/05/29 01:08:24;;;;;;;;;37.75;26.50;27.60;99.90;;;;;;5017370;28;8759;-63
2022/05/29 01:10:55;;;;;;;;;29.75;24.50;27.40;99.90;;;;;;5000891;28;8748;-64
2022/05/29 01:14:00;;;;;;;;;26.50;25.00;27.50;99.90;;;;;;5033253;28;8741;-64
2022/05/29 01:17:03;;;;;;;;;34.00;27.50;27.40;99.90;;;;;;5022409;28;8844;-64
2022/05/29 01:20:08;;;;;;;;;38.25;31.25;27.50;99.90;;;;;;5036560;28;8745;-64
2022/05/29 01:23:00;;;;;;;;;41.60;30.20;27.60;99.90;;;;;;5021922;28;8768;-63
2022/05/29 01:25:35;;;;;;;;;41.50;32.75;27.70;99.90;;;;;;5022080;28;8910;-64
2022/05/29 01:28:13;;;;;;;;;35.25;27.50;27.70;99.90;;;;;;5037347;28;8797;-63
2022/05/29 01:30:50;;;;;;;;;39.00;31.75;27.70;99.90;;;;;;5019751;28;8784;-64
2022/05/29 01:33:25;;;;;;;;;32.25;29.00;27.70;99.90;;;;;;5004248;28;8771;-64
2022/05/29 01:35:56;;;;;;;;;42.25;30.25;27.80;99.90;;;;;;5019629;28;8772;-64
2022/05/29 01:38:40;;;;;;;;;40.25;33.50;27.80;99.90;;;;;;5019834;28;8998;-64
2022/05/29 01:41:13;;;;;;;;;41.75;33.50;27.80;99.90;;;;;;5037433;28;8839;-65
2022/05/29 01:44:01;;;;;;;;;37.00;33.50;27.80;99.90;;;;;;5018920;28;8835;-65
2022/05/29 01:46:37;;;;;;;;;38.25;32.00;27.90;99.90;;;;;;5035863;28;8753;-65
2022/05/29 01:49:22;;;;;;;;;32.25;29.75;27.90;99.90;;;;;;5036073;28;8761;-64
2022/05/29 01:52:00;;;;;;;;;46.25;35.25;27.90;99.90;;;;;;5037151;28;8842;-64
2022/05/29 01:54:47;;;;;;;;;35.75;31.25;27.90;99.90;;;;;;5036640;28;8745;-64
2022/05/29 01:57:22;;;;;;;;;38.75;35.00;27.90;99.90;;;;;;5037058;28;8831;-64
2022/05/29 02:00:17;;;;;;;;;44.75;33.00;27.90;99.90;;;;;;5037053;28;8872;-64
2022/05/29 02:02:48;;;;;;;;;46.75;33.50;27.90;99.90;;;;;;5018845;28;8765;-65
2022/05/29 02:05:21;;;;;;;;;42.75;33.75;28.00;99.90;;;;;;5036949;28;8787;-64
2022/05/29 02:07:48;;;;;;;;;39.00;32.50;28.00;99.90;;;;;;5019432;28;8875;-65
2022/05/29 02:10:27;;;;;;;;;46.00;33.25;28.10;99.90;;;;;;5003150;28;8733;-64
2022/05/29 02:13:06;;;;;;;;;38.75;30.00;28.10;99.90;;;;;;5036727;28;8769;-64
2022/05/29 02:15:56;;;;;;;;;44.50;32.25;28.20;99.90;;;;;;5019771;28;8745;-64
2022/05/29 02:18:34;;;;;;;;;35.25;28.00;28.30;99.90;;;;;;5022093;28;9480;-64
2022/05/29 02:21:04;;;;;;;;;35.50;27.75;28.40;99.90;;;;;;5019526;28;8895;-64
2022/05/29 02:23:44;;;;;;;;;33.00;29.00;28.60;99.90;;;;;;5034902;28;9200;-65
2022/05/29 02:26:13;;;;;;;;;37.25;29.50;28.60;99.90;;;;;;5002798;28;8745;-64
2022/05/29 02:28:42;;;;;;;;;32.25;29.75;28.60;99.90;;;;;;5002408;28;8828;-64
2022/05/29 02:31:37;;;;;;;;;31.75;28.75;28.60;99.90;;;;;;5003523;28;8741;-64
2022/05/29 02:34:27;;;;;;;;;34.00;29.50;28.60;99.90;;;;;;5024549;28;8887;-64
2022/05/29 02:37:00;;;;;;;;;30.50;28.00;28.60;99.90;;;;;;5041098;28;8741;-64
2022/05/29 02:39:30;;;;;;;;;28.25;23.00;28.70;99.90;;;;;;5040348;28;8787;-64
2022/05/29 02:42:00;;;;;;;;;26.25;24.00;28.70;99.90;;;;;;5040577;28;8765;-64
2022/05/29 02:45:08;;;;;;;;;30.00;26.75;28.70;99.90;;;;;;5040327;28;8764;-63
2022/05/29 02:47:40;;;;;;;;;30.25;25.75;28.80;99.90;;;;;;4963614;28;8787;-64
2022/05/29 02:50:13;;;;;;;;;31.50;24.75;28.80;99.90;;;;;;5033601;28;8765;-64
2022/05/29 02:52:39;;;;;;;;;32.25;28.00;28.80;99.90;;;;;;5038923;28;8729;-64
2022/05/29 02:55:07;;;;;;;;;30.75;27.25;28.80;99.90;;;;;;5023228;28;8744;-64
2022/05/29 02:57:34;;;;;;;;;22.20;21.80;28.90;99.90;;;;;;5038824;28;9461;-64
2022/05/29 03:00:11;;;;;;;;;31.00;27.25;28.80;99.90;;;;;;5039322;28;8903;-64
2022/05/29 03:02:45;;;;;;;;;26.60;22.20;28.90;99.90;;;;;;5039369;28;9433;-64
2022/05/29 03:05:42;;;;;;;;;25.40;21.60;29.00;99.90;;;;;;5023181;28;8771;-64
2022/05/29 03:08:26;;;;;;;;;24.80;23.80;29.20;99.90;;;;;;5040216;28;8761;-64
2022/05/29 03:10:54;;;;;;;;;19.60;18.80;29.10;99.90;;;;;;5023370;28;8753;-64
2022/05/29 03:13:30;;;;;;;;;25.20;21.60;29.10;99.90;;;;;;5022100;28;8777;-63
2022/05/29 03:16:19;;;;;;;;;30.20;25.40;29.10;99.90;;;;;;5040033;28;8887;-64
2022/05/29 03:18:50;;;;;;;;;17.80;14.00;29.30;99.90;;;;;;5038614;28;8772;-63
2022/05/29 03:21:44;;;;;;;;;28.40;21.60;29.40;99.90;;;;;;5039703;28;8785;-64
2022/05/29 03:24:36;;;;;;;;;26.40;24.40;29.30;99.90;;;;;;5039568;28;8745;-64
2022/05/29 03:27:12;;;;;;;;;31.75;25.25;29.40;99.90;;;;;;5038297;28;8847;-64
2022/05/29 03:29:45;;;;;;;;;23.60;22.80;29.40;99.90;;;;;;5018455;28;8838;-64
2022/05/29 03:32:11;;;;;;;;;22.80;21.60;29.30;99.90;;;;;;5018554;28;8874;-64
2022/05/29 03:34:38;;;;;;;;;28.40;20.60;29.30;99.90;;;;;;5019338;28;8756;-64
2022/05/29 03:37:06;;;;;;;;;27.00;21.00;29.30;99.90;;;;;;5020018;28;8776;-63
2022/05/29 03:39:33;;;;;;;;;19.20;19.20;29.40;99.90;;;;;;5019008;28;8754;-63
2022/05/29 03:42:00;;;;;;;;;27.20;20.80;29.40;99.90;;;;;;5018144;28;8796;-64
2022/05/29 03:44:27;;;;;;;;;22.60;21.00;29.40;99.90;;;;;;5033498;28;8759;-64
2022/05/29 03:46:53;;;;;;;;;18.60;15.80;29.40;99.90;;;;;;5034113;28;8848;-64
2022/05/29 03:49:21;;;;;;;;;28.75;24.00;29.30;99.90;;;;;;5018200;28;8828;-64
2022/05/29 03:51:48;;;;;;;;;26.60;23.20;29.30;99.90;;;;;;5019268;28;8754;-64
2022/05/29 03:54:15;;;;;;;;;28.00;21.75;29.40;99.90;;;;;;5019529;28;8774;-64
2022/05/29 03:56:42;;;;;;;;;29.75;20.75;29.50;99.90;;;;;;5018973;28;8801;-64
2022/05/29 03:59:08;;;;;;;;;24.20;20.60;29.50;99.90;;;;;;5019132;28;8769;-64
2022/05/29 04:01:35;;;;;;;;;19.25;17.25;29.40;99.90;;;;;;5018686;28;8747;-64
2022/05/29 04:04:02;;;;;;;;;26.40;20.40;29.50;99.90;;;;;;5034703;28;8727;-64
2022/05/29 04:06:30;;;;;;;;;21.50;20.75;29.60;99.90;;;;;;5019260;28;8727;-64
2022/05/29 04:14:28;;;;;;;;;20.20;17.80;29.60;99.90;;;;;;5019241;28;8771;-64
2022/05/29 04:16:54;;;;;;;;;23.60;22.00;29.70;99.90;;;;;;5019479;28;9368;-64
2022/05/29 04:19:21;;;;;;;;;22.20;18.00;29.70;99.90;;;;;;5019639;28;8743;-64
2022/05/29 04:21:49;;;;;;;;;26.50;22.50;29.70;99.90;;;;;;5019513;28;8881;-64
2022/05/29 04:24:20;;;;;;;;;18.80;16.40;29.70;99.90;;;;;;5019531;28;8862;-64
2022/05/29 04:26:48;;;;;;;;;20.00;15.20;29.60;99.90;;;;;;5018066;28;8838;-64
2022/05/29 04:29:15;;;;;;;;;17.40;17.40;29.60;99.90;;;;;;5016944;28;8854;-64
2022/05/29 04:34:27;;;;;;;;;20.00;18.60;29.80;99.90;;;;;;5018431;28;8747;-64
2022/05/29 04:36:54;;;;;;;;;18.60;15.40;29.90;99.90;;;;;;5019342;28;8743;-64
2022/05/29 04:39:20;;;;;;;;;28.20;21.00;29.90;99.90;;;;;;5018620;28;8759;-63
2022/05/29 04:41:47;;;;;;;;;26.00;22.20;29.90;99.90;;;;;;5015652;28;8771;-64
2022/05/29 04:44:14;;;;;;;;;25.60;22.00;30.00;99.90;;;;;;5013942;28;8845;-64
2022/05/29 04:46:41;;;;;;;;;20.60;20.20;30.30;99.90;;;;;;4998562;28;8746;-64
2022/05/29 04:49:07;;;;;;;;;20.00;16.20;30.60;99.90;;;;;;5014003;28;8752;-64
2022/05/29 04:51:34;;;;;;;;;22.00;17.80;30.50;99.90;;;;;;4997902;28;8730;-64
2022/05/29 04:54:01;;;;;;;;;22.00;17.80;30.40;99.90;;;;;;4998524;28;8872;-64
2022/05/29 04:56:27;;;;;;;;;23.20;17.40;30.60;99.90;;;;;;4997610;28;9512;-64
2022/05/29 04:58:54;;;;;;;;;22.80;19.00;30.80;99.90;;;;;;4979029;28;8799;-64
2022/05/29 05:01:21;;;;;;;;;29.20;20.40;30.70;99.90;;;;;;4979114;28;8772;-63
2022/05/29 05:03:48;;;;;;;;;23.80;20.20;30.70;99.90;;;;;;4978871;28;8780;-64
2022/05/29 05:06:14;;;;;;;;;26.50;19.00;30.60;99.90;;;;;;4978862;28;8779;-64
2022/05/29 05:08:41;;;;;;;;;20.20;18.00;30.50;99.90;;;;;;4977876;28;8755;-64
2022/05/29 05:11:08;;;;;;;;;23.20;17.20;30.50;99.90;;;;;;4978936;28;8772;-64
2022/05/29 05:13:34;;;;;;;;;17.20;15.60;30.50;99.90;;;;;;5012449;28;8752;-64
2022/05/29 05:16:02;;;;;;;;;26.80;20.60;30.60;99.90;;;;;;5018346;28;8739;-64
2022/05/29 05:18:29;;;;;;;;;25.25;18.75;30.70;99.90;;;;;;5018009;28;8829;-64
2022/05/29 05:20:55;;;;;;;;;27.50;22.50;30.80;99.90;;;;;;5017961;28;8743;-64
2022/05/29 05:23:22;;;;;;;;;29.75;22.00;30.70;99.90;;;;;;4999852;28;8755;-63
2022/05/29 05:25:49;;;;;;;;;25.50;21.50;30.80;99.90;;;;;;5016445;28;8739;-64
2022/05/29 05:28:18;;;;;;;;;19.40;16.80;30.90;99.90;;;;;;5007520;28;8789;-64
2022/05/29 05:30:47;;;;;;;;;28.50;24.75;31.10;99.90;;;;;;5019835;28;8741;-64
2022/05/29 05:33:14;;;;;;;;;20.80;17.80;31.10;99.90;;;;;;5037075;28;8725;-64
2022/05/29 05:35:41;;;;;;;;;23.80;20.20;31.10;99.90;;;;;;5019754;28;8749;-64
2022/05/29 05:38:08;;;;;;;;;23.60;19.40;31.20;99.90;;;;;;5036991;28;8787;-64
2022/05/29 05:40:34;;;;;;;;;24.50;20.50;31.30;99.90;;;;;;5036712;28;8810;-64
2022/05/29 05:43:01;;;;;;;;;24.00;18.75;31.20;99.90;;;;;;5037340;28;8736;-64
2022/05/29 05:45:28;;;;;;;;;22.75;18.75;31.20;99.90;;;;;;5036788;28;8717;-63
2022/05/29 05:47:55;;;;;;;;;25.20;18.40;31.00;99.90;;;;;;5003357;28;8732;-64
2022/05/29 05:50:21;;;;;;;;;22.80;18.40;31.00;99.90;;;;;;5036975;28;8772;-64
2022/05/29 05:52:48;;;;;;;;;18.75;15.25;31.10;99.90;;;;;;5036911;28;8749;-64
2022/05/29 05:55:15;;;;;;;;;24.75;16.75;31.10;99.90;;;;;;5037437;28;8769;-64
2022/05/29 05:57:41;;;;;;;;;19.25;18.00;31.20;99.90;;;;;;4992464;28;8915;-65
2022/05/29 06:00:11;;;;;;;;;23.25;21.50;31.20;99.90;;;;;;5035904;28;9038;-63
2022/05/29 06:02:44;;;;;;;;;23.25;17.00;31.40;99.90;;;;;;5036599;28;8785;-63
2022/05/29 06:05:11;;;;;;;;;18.50;14.25;31.40;99.90;;;;;;5036531;28;8753;-63
2022/05/29 06:07:38;;;;;;;;;19.75;16.00;31.50;99.90;;;;;;5036814;28;8795;-63
2022/05/29 06:10:06;;;;;;;;;25.25;21.00;31.80;99.90;;;;;;5024055;28;8757;-64
2022/05/29 06:12:32;;;;;;;;;23.00;16.25;31.50;99.90;;;;;;5041323;28;8796;-64
2022/05/29 06:14:59;;;;;;;;;18.50;15.00;31.60;99.90;;;;;;5022942;28;8781;-64
2022/05/29 06:17:27;;;;;;;;;23.75;19.50;31.70;99.90;;;;;;5040308;28;8810;-64
2022/05/29 06:19:54;;;;;;;;;19.50;17.75;31.60;99.90;;;;;;5022629;28;8772;-64
2022/05/29 06:22:21;;;;;;;;;23.75;19.00;31.70;99.90;;;;;;5040612;28;8742;-64
2022/05/29 06:24:47;;;;;;;;;23.75;17.75;31.70;99.90;;;;;;5040497;28;8741;-64
2022/05/29 06:27:14;;;;;;;;;20.50;18.75;31.60;99.90;;;;;;5040502;28;9483;-64
2022/05/29 06:29:41;;;;;;;;;16.00;14.00;31.60;99.90;;;;;;5039981;28;8773;-64
2022/05/29 06:32:13;;;;;;;;;25.00;18.00;31.70;99.90;;;;;;5040478;28;8777;-64
2022/05/29 06:34:40;;;;;;;;;22.50;17.50;31.90;99.90;;;;;;5039943;28;8737;-64
2022/05/29 06:37:07;;;;;;;;;24.50;15.50;31.70;99.90;;;;;;5040758;28;8745;-64
2022/05/29 06:39:37;;;;;;;;;26.25;17.00;31.70;99.90;;;;;;5039900;28;8753;-64
2022/05/29 06:42:04;;;;;;;;;23.25;19.25;31.80;99.90;;;;;;5040145;28;8809;-64
2022/05/29 06:44:31;;;;;;;;;23.00;19.50;32.00;99.90;;;;;;5039987;28;8800;-64
2022/05/29 06:46:58;;;;;;;;;18.25;14.75;31.90;99.90;;;;;;5040270;28;8811;-64
2022/05/29 06:49:24;;;;;;;;;24.50;14.75;31.90;99.90;;;;;;5022030;28;8753;-61
2022/05/29 06:51:51;;;;;;;;;22.00;16.75;31.80;99.90;;;;;;5040485;28;8754;-64
2022/05/29 06:54:18;;;;;;;;;22.25;18.75;31.80;99.90;;;;;;5040021;28;8757;-63
2022/05/29 06:56:44;;;;;;;;;27.00;21.75;32.00;99.90;;;;;;5039773;28;8769;-64
2022/05/29 06:59:11;;;;;;;;;28.00;19.20;32.20;99.90;;;;;;5039837;28;8737;-64
2022/05/29 07:07:12;;;;;;;;;21.00;17.25;31.70;99.90;;;;;;5040689;28;8749;-64
2022/05/29 07:09:39;;;;;;;;;24.00;19.75;32.10;99.90;;;;;;5039750;28;8792;-64
2022/05/29 07:12:09;;;;;;;;;19.50;18.00;32.00;99.90;;;;;;5022344;28;8781;-64
2022/05/29 07:14:40;;;;;;;;;21.20;18.00;31.80;99.90;;;;;;5005429;28;9417;-64
2022/05/29 07:17:07;;;;;;;;;21.60;17.60;31.90;99.90;;;;;;5039197;28;8760;-64
2022/05/29 07:19:35;;;;;;;;;21.25;19.25;31.90;99.90;;;;;;5037807;28;8832;-64
2022/05/29 07:22:01;;;;;;;;;20.75;17.75;32.00;99.90;;;;;;5039937;28;8726;-64
2022/05/29 07:24:29;;;;;;;;;21.75;18.00;32.40;99.90;;;;;;5039656;28;8755;-64
2022/05/29 07:26:56;;;;;;;;;27.00;20.00;32.50;99.80;;;;;;5021749;28;8920;-64
2022/05/29 07:29:23;;;;;;;;;19.00;17.25;32.90;97.60;;;;;;5017643;28;8803;-64
2022/05/29 07:31:51;;;;;;;;;16.25;14.50;32.80;96.90;;;;;;5019562;28;8755;-64
2022/05/29 07:34:17;;;;;;;;;15.50;13.00;32.70;96.80;;;;;;5019763;28;8816;-62
2022/05/29 07:36:44;;;;;;;;;25.75;17.00;32.70;97.00;;;;;;5018283;28;8855;-64
2022/05/29 07:39:11;;;;;;;;;16.00;12.75;32.70;96.90;;;;;;5019514;28;8789;-64
2022/05/29 07:44:23;;;;;;;;;18.00;15.00;32.60;95.20;;;;;;5031853;28;9494;-64
2022/05/29 07:46:50;;;;;;;;;20.50;16.00;32.90;95.50;;;;;;5017951;28;8755;-64
2022/05/29 07:49:17;;;;;;;;;20.00;14.25;32.80;96.00;;;;;;5019778;28;8744;-64
2022/05/29 07:51:44;;;;;;;;;23.25;17.00;32.80;96.10;;;;;;5018862;28;8747;-64
2022/05/29 07:54:10;;;;;;;;;20.75;18.00;32.90;95.50;;;;;;5019237;28;9396;-64
2022/05/29 07:56:37;;;;;;;;;19.50;16.50;32.50;95.80;;;;;;5018712;28;8808;-64
2022/05/29 07:59:04;;;;;;;;;22.25;16.00;32.40;95.70;;;;;;5034526;28;8763;-64
2022/05/29 08:01:31;;;;;;;;;21.50;15.50;32.50;96.50;;;;;;5018643;28;8831;-64
2022/05/29 08:03:57;;;;;;;;;21.75;15.50;32.70;96.70;;;;;;5018245;28;8731;-64
2022/05/29 08:06:24;;;;;;;;;24.75;16.75;33.00;95.50;;;;;;5017373;28;8751;-64
2022/05/29 08:08:51;;;;;;;;;17.00;15.00;33.00;95.70;;;;;;5034042;28;8808;-65
2022/05/29 08:11:18;;;;;;;;;18.50;15.75;32.90;96.60;;;;;;5017688;28;8759;-64
2022/05/29 08:13:45;;;;;;;;;18.75;15.75;32.60;95.50;;;;;;5017066;28;8794;-64
2022/05/29 08:16:16;;;;;;;;;19.25;15.25;32.60;96.90;;;;;;5019134;28;8732;-64
2022/05/29 08:18:43;;;;;;;;;17.25;16.50;32.40;96.90;;;;;;5018362;28;8739;-64
2022/05/29 08:21:09;;;;;;;;;22.50;18.50;32.90;96.70;;;;;;5033965;28;8759;-64
2022/05/29 08:23:37;;;;;;;;;13.25;12.00;33.00;96.90;;;;;;5018258;28;8755;-64
2022/05/29 08:31:34;;;;;;;;;21.75;17.75;32.80;97.00;;;;;;5037436;28;8729;-64
2022/05/29 08:34:01;;;;;;;;;23.25;18.25;32.70;97.00;;;;;;5038710;28;8749;-64
2022/05/29 08:36:27;;;;;;;;;19.75;17.25;32.90;96.70;;;;;;5037590;28;8879;-63
2022/05/29 08:38:56;;;;;;;;;13.75;11.75;33.10;96.00;;;;;;5036808;28;8741;-64
2022/05/29 08:41:34;;;;;;;;;19.50;17.00;33.00;96.40;;;;;;5037572;28;8769;-64
2022/05/29 08:44:08;;;;;;;;;23.60;17.80;33.30;96.10;;;;;;5001830;28;9498;-64
2022/05/29 08:46:41;;;;;;;;;19.20;17.00;33.00;96.20;;;;;;5018039;28;8822;-64
2022/05/29 08:49:10;;;;;;;;;20.75;16.00;33.10;96.50;;;;;;4985674;28;8742;-64
2022/05/29 08:52:12;;;;;;;;;19.50;16.50;33.20;95.80;;;;;;5000312;28;8769;-64
2022/05/29 08:55:10;;;;;;;;;21.25;16.25;33.20;96.30;;;;;;5002620;28;8775;-64
2022/05/29 08:57:43;;;;;;;;;20.50;16.75;33.10;95.80;;;;;;5026903;28;8859;-64
2022/05/29 09:00:21;;;;;;;;;21.25;18.50;32.90;96.20;;;;;;5037645;28;8786;-64
2022/05/29 09:03:23;;;;;;;;;21.75;17.50;32.70;96.70;;;;;;5020459;28;8761;-63
2022/05/29 09:05:53;;;;;;;;;3.75;1.75;32.80;96.50;;;;;;4997684;28;8814;-64
2022/05/29 09:09:03;;;;;;;;;13.75;12.75;33.10;94.90;;;;;;5003544;28;8911;-63
2022/05/29 09:11:54;;;;;;;;;20.50;18.50;33.00;95.80;;;;;;4974665;28;8761;-63
2022/05/29 09:14:30;;;;;;;;;31.00;25.50;33.00;95.90;;;;;;5004612;28;8773;-63
2022/05/29 09:17:10;;;;;;;;;23.50;19.00;32.70;95.80;;;;;;5021116;28;8749;-63
2022/05/29 09:19:50;;;;;;;;;18.25;14.50;32.90;96.40;;;;;;5004423;28;8761;-63
2022/05/29 09:22:32;;;;;;;;;23.00;16.75;33.20;96.40;;;;;;5005813;28;8745;-63
2022/05/29 09:25:11;;;;;;;;;20.75;19.25;33.10;96.20;;;;;;5020223;28;8745;-63
2022/05/29 09:27:39;;;;;;;;;20.75;17.25;33.20;96.20;;;;;;5036884;28;9029;-64
2022/05/29 09:30:06;;;;;;;;;20.75;20.00;33.10;96.40;;;;;;5015854;28;8775;-64
2022/05/29 09:32:34;;;;;;;;;21.50;16.75;33.00;96.90;;;;;;5016819;28;8873;-63
2022/05/29 09:35:32;;;;;;;;;17.75;17.75;33.00;96.80;;;;;;5016021;28;8775;-64
2022/05/29 09:38:02;;;;;;;;;17.50;15.00;33.00;97.80;;;;;;5002013;28;8739;-63
2022/05/29 09:40:40;;;;;;;;;20.75;17.00;32.80;97.70;;;;;;5016518;28;8818;-63
2022/05/29 09:43:36;;;;;;;;;18.75;15.50;32.60;98.30;;;;;;5000428;28;8786;-64
2022/05/29 09:46:19;;;;;;;;;23.00;17.25;32.70;98.60;;;;;;5004878;28;8783;-63
2022/05/29 09:51:58;;;;;;;;;19.25;16.00;32.70;99.20;;;;;;5017476;28;8775;-63
2022/05/29 09:54:30;;;;;;;;;17.50;17.00;32.80;98.90;;;;;;5032195;28;8759;-63
2022/05/29 09:57:06;;;;;;;;;19.25;17.25;32.70;99.30;;;;;;4999746;28;8771;-63
2022/05/29 09:59:36;;;;;;;;;20.75;16.75;32.70;99.60;;;;;;5015695;28;9450;-63
2022/05/29 10:02:03;;;;;;;;;18.75;16.25;32.70;99.00;;;;;;5016776;28;8864;-63
2022/05/29 10:04:39;;;;;;;;;20.75;14.50;32.70;99.00;;;;;;5015471;28;9461;-62
2022/05/29 10:07:22;;;;;;;;;18.50;17.25;32.60;98.90;;;;;;5017751;28;8836;-64
2022/05/29 10:10:06;;;;;;;;;16.20;14.40;32.50;99.50;;;;;;5016590;28;8833;-63
2022/05/29 10:12:41;;;;;;;;;20.25;16.00;32.50;99.80;;;;;;5016811;28;9032;-64
2022/05/29 10:15:14;;;;;;;;;23.00;17.75;32.40;99.60;;;;;;5015973;28;8785;-64
2022/05/29 10:17:40;;;;;;;;;18.75;17.00;32.30;99.30;;;;;;5017033;28;8782;-63
2022/05/29 10:20:32;;;;;;;;;27.75;21.00;32.30;99.80;;;;;;5016693;28;8783;-63
2022/05/29 10:23:29;;;;;;;;;16.75;13.00;32.20;99.90;;;;;;5015993;28;8865;-63
2022/05/29 10:26:01;;;;;;;;;30.75;27.00;32.20;99.60;;;;;;5013115;28;8755;-63
2022/05/29 10:28:34;;;;;;;;;34.50;28.00;32.20;99.50;;;;;;5019672;28;8842;-63
2022/05/29 10:31:05;;;;;;;;;24.75;21.50;32.10;99.00;;;;;;5037728;28;8808;-64
2022/05/29 10:33:34;;;;;;;;;19.00;17.00;32.10;99.10;;;;;;5019066;28;8757;-63
2022/05/29 10:36:17;;;;;;;;;14.00;14.00;32.10;98.90;;;;;;5036336;28;9037;-63
2022/05/29 10:38:44;;;;;;;;;18.00;16.00;32.00;99.10;;;;;;5019022;28;8729;-64
2022/05/29 10:41:11;;;;;;;;;21.00;18.00;31.90;99.10;;;;;;5036152;28;8753;-64
2022/05/29 10:43:50;;;;;;;;;25.50;21.75;31.90;98.90;;;;;;5001756;28;8797;-64
2022/05/29 10:46:44;;;;;;;;;24.00;21.25;31.90;98.80;;;;;;5037171;28;9429;-62
2022/05/29 10:49:22;;;;;;;;;25.25;21.50;31.80;98.70;;;;;;5035879;28;8762;-64
2022/05/29 10:52:00;;;;;;;;;21.50;19.75;31.80;98.90;;;;;;5036646;28;8777;-64
2022/05/29 10:54:39;;;;;;;;;25.25;24.25;31.70;99.00;;;;;;5036483;28;8765;-63
2022/05/29 10:57:31;;;;;;;;;35.00;28.25;31.70;99.60;;;;;;5040229;28;8761;-64
2022/05/29 11:00:09;;;;;;;;;26.00;20.75;31.60;99.90;;;;;;5022814;28;8875;-64
2022/05/29 11:05:44;;;;;;;;;16.00;11.00;31.20;99.90;;;;;;5040077;28;8749;-64
2022/05/29 11:08:20;;;;;;;;;22.75;22.75;31.10;99.90;;;;;;5040261;28;8855;-64
2022/05/29 11:11:10;;;;;;;;;23.00;16.25;30.90;99.90;;;;;;5040093;28;8745;-63
2022/05/29 11:14:08;;;;;;;;;31.50;27.50;30.90;99.90;;;;;;5039383;28;8784;-64
2022/05/29 11:16:47;;;;;;;;;36.25;30.00;30.90;99.90;;;;;;5039639;28;8785;-63
2022/05/29 11:19:29;;;;;;;;;40.75;31.25;30.90;99.90;;;;;;5040360;28;8752;-64
2022/05/29 11:21:59;;;;;;;;;23.25;20.50;30.90;99.90;;;;;;5040262;28;8803;-64
2022/05/29 11:25:06;;;;;;;;;34.25;29.00;30.70;99.90;;;;;;5021837;28;8757;-64
2022/05/29 11:27:41;;;;;;;;;32.50;26.00;30.80;99.90;;;;;;5018902;28;8793;-63
2022/05/29 11:30:14;;;;;;;;;27.50;21.75;30.90;99.90;;;;;;5039335;28;8785;-64
2022/05/29 11:32:46;;;;;;;;;19.50;18.50;30.80;99.90;;;;;;5039490;28;8879;-63
2022/05/29 11:35:40;;;;;;;;;22.25;19.25;30.60;99.90;;;;;;5039575;28;8784;-63
2022/05/29 11:38:16;;;;;;;;;23.00;19.00;30.70;99.90;;;;;;5038857;28;9443;-63
2022/05/29 11:40:45;;;;;;;;;19.40;18.40;30.80;99.90;;;;;;5039130;28;8804;-63
2022/05/29 11:43:24;;;;;;;;;24.75;21.00;30.70;99.90;;;;;;5022035;28;8793;-63
2022/05/29 11:52:34;;;;;;;;;14.00;13.20;30.40;99.90;;;;;;5039149;28;8863;-63
2022/05/29 11:55:17;;;;;;;;;15.80;15.80;30.40;99.90;;;;;;5038223;28;8765;-63
2022/05/29 11:57:51;;;;;;;;;17.25;14.75;30.40;99.90;;;;;;5037987;28;8895;-63
2022/05/29 12:00:28;;;;;;;;;20.25;16.75;30.50;99.90;;;;;;5038918;28;8792;-62
2022/05/29 12:03:08;;;;;;;;;16.75;14.50;30.70;99.90;;;;;;5021281;28;8769;-63
2022/05/29 12:05:53;;;;;;;;;21.50;18.75;30.70;99.90;;;;;;5038409;28;8876;-63
2022/05/29 12:08:26;;;;;;;;;29.25;20.00;30.60;99.90;;;;;;5021127;28;8827;-63
2022/05/29 12:10:59;;;;;;;;;20.00;16.50;30.60;99.90;;;;;;5005208;28;8759;-64
2022/05/29 12:13:29;;;;;;;;;18.25;18.25;30.50;99.90;;;;;;5005136;28;8773;-62
2022/05/29 12:16:02;;;;;;;;;28.25;20.25;30.50;99.90;;;;;;5021459;28;9582;-63
2022/05/29 12:18:40;;;;;;;;;21.25;16.75;30.50;99.90;;;;;;5036965;28;8791;-63
2022/05/29 12:21:06;;;;;;;;;24.50;18.50;30.50;99.90;;;;;;5036333;28;9465;-63
2022/05/29 12:23:41;;;;;;;;;19.80;15.60;30.50;99.90;;;;;;5038496;28;8804;-63
2022/05/29 12:26:21;;;;;;;;;21.40;19.80;30.50;99.90;;;;;;5037179;28;8746;-63
2022/05/29 12:29:07;;;;;;;;;19.00;16.00;30.40;99.90;;;;;;5018950;28;8755;-63
2022/05/29 12:31:39;;;;;;;;;22.60;20.60;30.30;99.90;;;;;;5001152;28;8743;-63
2022/05/29 12:34:07;;;;;;;;;22.00;19.00;30.10;99.90;;;;;;5001965;28;8732;-63
2022/05/29 12:36:52;;;;;;;;;21.75;19.75;30.00;99.90;;;;;;5000658;28;9863;-63
2022/05/29 12:39:34;;;;;;;;;17.00;14.75;30.00;99.90;;;;;;5018938;28;8751;-63
2022/05/29 12:42:25;;;;;;;;;23.00;20.00;29.60;99.90;;;;;;5006559;28;8761;-63
2022/05/29 12:45:16;;;;;;;;;26.00;20.00;29.60;99.90;;;;;;5037287;28;8759;-63
2022/05/29 12:48:15;;;;;;;;;24.75;19.25;29.80;99.90;;;;;;5038156;28;8768;-63
2022/05/29 12:50:44;;;;;;;;;26.00;21.75;29.70;99.90;;;;;;5037942;28;8795;-63
2022/05/29 12:53:37;;;;;;;;;22.75;21.75;29.80;99.90;;;;;;5037329;28;8734;-63
2022/05/29 12:56:41;;;;;;;;;26.25;21.50;29.80;99.90;;;;;;5037012;28;8776;-63
2022/05/29 12:59:26;;;;;;;;;28.00;23.25;29.90;99.90;;;;;;5018044;28;8770;-63
2022/05/29 13:01:59;;;;;;;;;18.75;16.50;29.80;99.90;;;;;;5016884;28;8747;-63
2022/05/29 13:04:59;;;;;;;;;27.00;22.00;29.80;99.90;;;;;;5018299;28;9395;-63
2022/05/29 13:07:45;;;;;;;;;21.75;20.00;29.90;99.90;;;;;;5018247;28;8770;-59
2022/05/29 13:10:17;;;;;;;;;26.40;23.60;29.80;99.90;;;;;;5019106;28;8759;-64
2022/05/29 13:12:46;;;;;;;;;24.00;21.00;29.60;99.90;;;;;;5026329;28;8749;-64
2022/05/29 13:15:34;;;;;;;;;32.20;23.20;29.70;99.90;;;;;;5020155;28;8855;-63
2022/05/29 13:18:41;;;;;;;;;30.60;23.60;29.50;99.90;;;;;;5021574;28;8937;-64
2022/05/29 13:21:18;;;;;;;;;37.75;27.75;29.40;99.90;;;;;;5022818;28;8807;-63
2022/05/29 13:23:46;;;;;;;;;29.75;24.50;29.60;99.90;;;;;;5037263;28;8776;-63
2022/05/29 13:26:16;;;;;;;;;29.00;24.25;29.60;99.90;;;;;;5019857;28;8745;-64
2022/05/29 13:28:43;;;;;;;;;33.25;28.50;29.60;99.90;;;;;;5036457;28;9457;-63
2022/05/29 13:31:12;;;;;;;;;29.75;27.75;29.60;99.90;;;;;;5035788;28;8854;-64
2022/05/29 13:33:57;;;;;;;;;30.25;28.25;29.70;99.90;;;;;;5036701;28;8788;-64
2022/05/29 13:36:49;;;;;;;;;29.00;26.50;29.60;99.90;;;;;;5019730;28;8777;-63
2022/05/29 13:39:25;;;;;;;;;29.75;22.50;29.60;99.90;;;;;;5036089;28;8751;-63
2022/05/29 13:42:05;;;;;;;;;30.00;24.00;29.60;99.90;;;;;;5036861;28;8789;-63
2022/05/29 13:44:36;;;;;;;;;24.50;20.75;29.60;99.90;;;;;;5019568;28;8757;-63